sensor_id;sensor_type;location;lat;lon;timestamp;P1;durP1;ratioP1;P2;durP2;ratioP2
39308;SDS011;26019;47.510;19.122;2023-04-24T00:02:47;8.00;;;5.97;;
39308;SDS011;26019;47.510;19.122;2023-04-24T00:12:50;9.17;;;5.63;;
39308;SDS011;26019;47.510;19.122;2023-04-24T00:22:52;10.20;;;6.05;;
39308;SDS011;26019;47.510;19.122;2023-04-24T00:42:56;11.68;;;5.28;;
39308;SDS011;26019;47.510;19.122;2023-04-24T00:53:00;10.37;;;5.20;;
39308;SDS011;26019;47.510;19.122;2023-04-24T01:03:03;8.63;;;5.68;;
39308;SDS011;26019;47.510;19.122;2023-04-24T01:13:10;11.90;;;5.90;;
39308;SDS011;26019;47.510;19.122;2023-04-24T01:23:14;8.52;;;5.20;;
39308;SDS011;26019;47.510;19.122;2023-04-24T01:33:18;9.60;;;5.68;;
39308;SDS011;26019;47.510;19.122;2023-04-24T01:43:25;7.05;;;5.10;;
39308;SDS011;26019;47.510;19.122;2023-04-24T01:53:28;9.32;;;6.90;;
39308;SDS011;26019;47.510;19.122;2023-04-24T02:03:30;18.02;;;8.18;;
39308;SDS011;26019;47.510;19.122;2023-04-24T02:13:33;14.18;;;8.35;;
39308;SDS011;26019;47.510;19.122;2023-04-24T02:23:35;14.60;;;9.13;;
39308;SDS011;26019;47.510;19.122;2023-04-24T02:43:49;17.33;;;10.88;;
39308;SDS011;26019;47.510;19.122;2023-04-24T02:53:51;15.95;;;9.80;;
39308;SDS011;26019;47.510;19.122;2023-04-24T03:03:53;15.67;;;9.70;;
39308;SDS011;26019;47.510;19.122;2023-04-24T03:13:55;12.93;;;10.70;;
39308;SDS011;26019;47.510;19.122;2023-04-24T03:23:57;14.30;;;11.35;;
39308;SDS011;26019;47.510;19.122;2023-04-24T03:33:59;14.75;;;10.70;;
39308;SDS011;26019;47.510;19.122;2023-04-24T03:44:03;13.90;;;11.27;;
39308;SDS011;26019;47.510;19.122;2023-04-24T03:54:04;17.27;;;11.68;;
39308;SDS011;26019;47.510;19.122;2023-04-24T04:04:06;15.75;;;11.38;;
39308;SDS011;26019;47.510;19.122;2023-04-24T04:14:16;16.25;;;11.23;;
39308;SDS011;26019;47.510;19.122;2023-04-24T04:24:17;15.85;;;12.20;;
39308;SDS011;26019;47.510;19.122;2023-04-24T04:34:31;16.17;;;11.63;;
39308;SDS011;26019;47.510;19.122;2023-04-24T04:44:42;16.20;;;12.10;;
39308;SDS011;26019;47.510;19.122;2023-04-24T04:54:46;17.63;;;10.77;;
39308;SDS011;26019;47.510;19.122;2023-04-24T05:04:48;12.43;;;8.93;;
39308;SDS011;26019;47.510;19.122;2023-04-24T05:14:52;11.90;;;9.47;;
39308;SDS011;26019;47.510;19.122;2023-04-24T05:24:54;15.30;;;8.70;;
39308;SDS011;26019;47.510;19.122;2023-04-24T05:34:57;15.60;;;7.70;;
39308;SDS011;26019;47.510;19.122;2023-04-24T05:44:58;13.93;;;7.95;;
39308;SDS011;26019;47.510;19.122;2023-04-24T05:55:11;15.20;;;8.20;;
39308;SDS011;26019;47.510;19.122;2023-04-24T06:15:17;13.07;;;8.60;;
39308;SDS011;26019;47.510;19.122;2023-04-24T06:25:22;13.68;;;9.23;;
39308;SDS011;26019;47.510;19.122;2023-04-24T06:35:25;15.45;;;10.23;;
39308;SDS011;26019;47.510;19.122;2023-04-24T06:45:27;13.07;;;9.07;;
39308;SDS011;26019;47.510;19.122;2023-04-24T06:55:29;14.33;;;9.67;;
39308;SDS011;26019;47.510;19.122;2023-04-24T07:05:32;12.20;;;9.03;;
39308;SDS011;26019;47.510;19.122;2023-04-24T07:15:36;17.05;;;9.60;;
39308;SDS011;26019;47.510;19.122;2023-04-24T07:25:38;15.93;;;10.70;;
39308;SDS011;26019;47.510;19.122;2023-04-24T07:45:44;15.10;;;8.93;;
39308;SDS011;26019;47.510;19.122;2023-04-24T07:55:57;14.60;;;8.98;;
39308;SDS011;26019;47.510;19.122;2023-04-24T08:05:59;14.02;;;9.02;;
39308;SDS011;26019;47.510;19.122;2023-04-24T08:16:01;15.18;;;9.35;;
39308;SDS011;26019;47.510;19.122;2023-04-24T08:26:03;15.50;;;9.57;;
39308;SDS011;26019;47.510;19.122;2023-04-24T08:36:08;14.40;;;10.05;;
39308;SDS011;26019;47.510;19.122;2023-04-24T08:46:13;13.20;;;8.77;;
39308;SDS011;26019;47.510;19.122;2023-04-24T08:56:17;11.30;;;7.80;;
39308;SDS011;26019;47.510;19.122;2023-04-24T09:06:20;12.38;;;7.97;;
39308;SDS011;26019;47.510;19.122;2023-04-24T09:16:23;8.38;;;6.70;;
39308;SDS011;26019;47.510;19.122;2023-04-24T09:26:28;8.90;;;6.70;;
39308;SDS011;26019;47.510;19.122;2023-04-24T09:36:39;10.77;;;4.80;;
39308;SDS011;26019;47.510;19.122;2023-04-24T09:46:51;10.20;;;5.70;;
39308;SDS011;26019;47.510;19.122;2023-04-24T09:56:55;6.93;;;5.20;;
39308;SDS011;26019;47.510;19.122;2023-04-24T10:06:59;7.68;;;4.50;;
39308;SDS011;26019;47.510;19.122;2023-04-24T10:17:09;7.07;;;4.68;;
39308;SDS011;26019;47.510;19.122;2023-04-24T10:27:13;8.07;;;4.85;;
39308;SDS011;26019;47.510;19.122;2023-04-24T10:37:18;5.18;;;4.07;;
39308;SDS011;26019;47.510;19.122;2023-04-24T10:47:20;6.53;;;4.63;;
39308;SDS011;26019;47.510;19.122;2023-04-24T10:57:25;6.70;;;5.53;;
39308;SDS011;26019;47.510;19.122;2023-04-24T11:07:30;13.30;;;6.28;;
39308;SDS011;26019;47.510;19.122;2023-04-24T11:17:53;8.15;;;5.50;;
39308;SDS011;26019;47.510;19.122;2023-04-24T11:28:05;7.22;;;5.55;;
39308;SDS011;26019;47.510;19.122;2023-04-24T11:38:09;12.55;;;6.45;;
39308;SDS011;26019;47.510;19.122;2023-04-24T11:48:18;7.47;;;6.57;;
39308;SDS011;26019;47.510;19.122;2023-04-24T11:58:23;9.07;;;6.82;;
39308;SDS011;26019;47.510;19.122;2023-04-24T12:08:28;12.63;;;7.82;;
39308;SDS011;26019;47.510;19.122;2023-04-24T12:18:31;13.18;;;8.18;;
39308;SDS011;26019;47.510;19.122;2023-04-24T12:28:36;7.75;;;5.03;;
39308;SDS011;26019;47.510;19.122;2023-04-24T12:38:43;13.40;;;7.25;;
39308;SDS011;26019;47.510;19.122;2023-04-24T12:48:48;10.75;;;6.40;;
39308;SDS011;26019;47.510;19.122;2023-04-24T12:58:51;9.65;;;6.20;;
39308;SDS011;26019;47.510;19.122;2023-04-24T13:08:53;8.40;;;5.25;;
39308;SDS011;26019;47.510;19.122;2023-04-24T13:18:57;5.18;;;3.70;;
39308;SDS011;26019;47.510;19.122;2023-04-24T13:29:04;6.78;;;3.45;;
39308;SDS011;26019;47.510;19.122;2023-04-24T13:39:06;10.65;;;3.50;;
39308;SDS011;26019;47.510;19.122;2023-04-24T13:49:10;6.63;;;3.78;;
39308;SDS011;26019;47.510;19.122;2023-04-24T13:59:16;7.63;;;4.10;;
39308;SDS011;26019;47.510;19.122;2023-04-24T14:09:20;6.63;;;4.05;;
39308;SDS011;26019;47.510;19.122;2023-04-24T14:29:30;13.05;;;7.65;;
39308;SDS011;26019;47.510;19.122;2023-04-24T14:39:35;12.07;;;6.93;;
39308;SDS011;26019;47.510;19.122;2023-04-24T14:49:37;11.37;;;8.57;;
39308;SDS011;26019;47.510;19.122;2023-04-24T14:59:40;13.02;;;6.93;;
39308;SDS011;26019;47.510;19.122;2023-04-24T15:09:50;14.20;;;7.37;;
39308;SDS011;26019;47.510;19.122;2023-04-24T15:19:52;11.90;;;7.93;;
39308;SDS011;26019;47.510;19.122;2023-04-24T15:30:03;13.13;;;8.98;;
39308;SDS011;26019;47.510;19.122;2023-04-24T15:40:10;13.88;;;10.75;;
39308;SDS011;26019;47.510;19.122;2023-04-24T15:50:15;14.48;;;10.07;;
39308;SDS011;26019;47.510;19.122;2023-04-24T16:00:22;12.60;;;8.85;;
39308;SDS011;26019;47.510;19.122;2023-04-24T16:10:25;14.90;;;10.48;;
39308;SDS011;26019;47.510;19.122;2023-04-24T16:20:27;7.57;;;6.37;;
39308;SDS011;26019;47.510;19.122;2023-04-24T16:30:29;7.77;;;6.20;;
39308;SDS011;26019;47.510;19.122;2023-04-24T16:40:30;7.57;;;6.03;;
39308;SDS011;26019;47.510;19.122;2023-04-24T16:50:33;7.80;;;6.38;;
39308;SDS011;26019;47.510;19.122;2023-04-24T17:00:37;10.07;;;7.70;;
39308;SDS011;26019;47.510;19.122;2023-04-24T17:10:39;7.70;;;5.93;;
39308;SDS011;26019;47.510;19.122;2023-04-24T17:20:43;7.90;;;5.47;;
39308;SDS011;26019;47.510;19.122;2023-04-24T17:30:48;6.55;;;5.55;;
39308;SDS011;26019;47.510;19.122;2023-04-24T17:40:55;7.40;;;5.50;;
39308;SDS011;26019;47.510;19.122;2023-04-24T17:50:58;5.18;;;4.68;;
39308;SDS011;26019;47.510;19.122;2023-04-24T18:01:10;5.53;;;4.90;;
39308;SDS011;26019;47.510;19.122;2023-04-24T18:11:12;6.25;;;4.25;;
39308;SDS011;26019;47.510;19.122;2023-04-24T18:21:16;5.30;;;4.05;;
39308;SDS011;26019;47.510;19.122;2023-04-24T18:31:20;7.05;;;4.30;;
39308;SDS011;26019;47.510;19.122;2023-04-24T18:41:23;4.25;;;3.85;;
39308;SDS011;26019;47.510;19.122;2023-04-24T18:51:26;6.47;;;3.00;;
39308;SDS011;26019;47.510;19.122;2023-04-24T19:01:29;4.75;;;3.17;;
39308;SDS011;26019;47.510;19.122;2023-04-24T19:11:34;3.20;;;2.90;;
39308;SDS011;26019;47.510;19.122;2023-04-24T19:32:20;4.55;;;3.28;;
39308;SDS011;26019;47.510;19.122;2023-04-24T19:42:23;3.75;;;3.33;;
39308;SDS011;26019;47.510;19.122;2023-04-24T19:52:52;3.67;;;3.20;;
39308;SDS011;26019;47.510;19.122;2023-04-24T20:02:54;3.63;;;3.08;;
39308;SDS011;26019;47.510;19.122;2023-04-24T20:12:59;4.25;;;2.67;;
39308;SDS011;26019;47.510;19.122;2023-04-24T20:23:03;5.18;;;3.15;;
39308;SDS011;26019;47.510;19.122;2023-04-24T20:33:17;4.15;;;2.85;;
39308;SDS011;26019;47.510;19.122;2023-04-24T20:43:20;3.17;;;2.87;;
39308;SDS011;26019;47.510;19.122;2023-04-24T20:53:26;2.80;;;2.55;;
39308;SDS011;26019;47.510;19.122;2023-04-24T21:13:35;3.67;;;2.97;;
39308;SDS011;26019;47.510;19.122;2023-04-24T21:23:38;3.25;;;2.70;;
39308;SDS011;26019;47.510;19.122;2023-04-24T21:33:40;3.47;;;2.67;;
39308;SDS011;26019;47.510;19.122;2023-04-24T21:43:42;3.33;;;2.73;;
39308;SDS011;26019;47.510;19.122;2023-04-24T21:53:46;2.38;;;2.17;;
39308;SDS011;26019;47.510;19.122;2023-04-24T22:03:49;4.33;;;2.80;;
39308;SDS011;26019;47.510;19.122;2023-04-24T22:13:54;2.53;;;2.33;;
39308;SDS011;26019;47.510;19.122;2023-04-24T22:23:55;5.07;;;3.22;;
39308;SDS011;26019;47.510;19.122;2023-04-24T22:34:09;4.67;;;2.97;;
39308;SDS011;26019;47.510;19.122;2023-04-24T22:54:13;2.88;;;2.15;;
39308;SDS011;26019;47.510;19.122;2023-04-24T23:04:14;5.32;;;2.50;;
39308;SDS011;26019;47.510;19.122;2023-04-24T23:14:16;3.25;;;2.83;;
39308;SDS011;26019;47.510;19.122;2023-04-24T23:24:18;2.15;;;1.95;;
39308;SDS011;26019;47.510;19.122;2023-04-24T23:34:22;2.70;;;1.83;;
39308;SDS011;26019;47.510;19.122;2023-04-24T23:44:24;2.80;;;2.45;;
39308;SDS011;26019;47.510;19.122;2023-04-24T23:54:26;1.70;;;1.60;;
